Time;durP1;ratioP1;P1;durP2;ratioP2;P2;SDS_P1;SDS_P2;PMS_P1;PMS_P2;Temp;Humidity;BMP_temperature;BMP_pressure;BME280_temperature;BME280_humidity;BME280_pressure;Samples;Min_cycle;Max_cycle;Signal;HPM_P1;HPM_P2
2023/04/18 00:01:16;;;;;;;14.03;11.03;;;;;;;;;;5019795;28;20240;-53
2023/04/18 00:03:44;;;;;;;13.13;11.33;;;;;;;;;;5006883;28;20303;-51
2023/04/18 00:06:12;;;;;;;14.27;10.30;;;;;;;;;;5005326;28;20647;-52
2023/04/18 00:08:39;;;;;;;13.57;12.03;;;;;;;;;;5003956;28;20235;-52
2023/04/18 00:11:05;;;;;;;13.60;11.70;;;;;;;;;;5004466;28;20867;-52
2023/04/18 00:13:32;;;;;;;12.83;11.00;;;;;;;;;;4999796;28;20288;-53
2023/04/18 00:16:12;;;;;;;14.83;12.00;;;;;;;;;;4998316;28;20237;-53
2023/04/18 00:18:38;;;;;;;14.33;11.47;;;;;;;;;;4998081;28;20997;-54
2023/04/18 00:21:05;;;;;;;12.80;11.23;;;;;;;;;;5002160;28;20284;-52
2023/04/18 00:23:34;;;;;;;15.60;12.43;;;;;;;;;;5002498;28;20288;-52
2023/04/18 00:26:00;;;;;;;15.00;12.10;;;;;;;;;;5003029;28;20241;-53
2023/04/18 00:28:27;;;;;;;14.73;12.37;;;;;;;;;;4997495;28;20664;-54
2023/04/18 00:30:53;;;;;;;15.00;11.50;;;;;;;;;;5001894;28;20261;-52
2023/04/18 00:33:20;;;;;;;15.03;11.77;;;;;;;;;;5003713;28;20237;-52
2023/04/18 00:35:46;;;;;;;12.23;10.60;;;;;;;;;;4996194;28;20240;-51
2023/04/18 00:38:13;;;;;;;17.77;12.27;;;;;;;;;;5001949;28;20237;-53
2023/04/18 00:40:41;;;;;;;12.60;10.07;;;;;;;;;;4999207;28;20242;-52
2023/04/18 00:43:08;;;;;;;15.83;11.90;;;;;;;;;;4995872;28;20238;-53
2023/04/18 00:45:35;;;;;;;17.97;12.43;;;;;;;;;;4996788;28;20237;-52
2023/04/18 00:48:02;;;;;;;13.93;11.57;;;;;;;;;;5000442;28;20775;-53
2023/04/18 00:50:29;;;;;;;12.47;11.17;;;;;;;;;;5001426;28;20259;-53
2023/04/18 00:52:56;;;;;;;15.83;11.37;;;;;;;;;;4992716;28;20318;-51
2023/04/18 00:55:24;;;;;;;14.47;11.33;;;;;;;;;;5000931;28;20245;-52
2023/04/18 00:57:52;;;;;;;13.07;10.87;;;;;;;;;;4999533;28;20276;-51
2023/04/18 01:00:19;;;;;;;13.13;11.07;;;;;;;;;;4997472;28;20264;-54
2023/04/18 01:02:48;;;;;;;11.60;10.37;;;;;;;;;;4998226;28;20241;-52
2023/04/18 01:05:15;;;;;;;13.17;11.33;;;;;;;;;;5001170;28;20245;-52
2023/04/18 01:07:42;;;;;;;14.27;11.33;;;;;;;;;;5000321;28;20295;-56
2023/04/18 01:10:10;;;;;;;14.37;11.57;;;;;;;;;;5003305;28;20260;-53
2023/04/18 01:12:37;;;;;;;14.57;10.83;;;;;;;;;;5003252;28;20272;-53
2023/04/18 01:15:06;;;;;;;16.53;11.70;;;;;;;;;;5005379;28;20319;-51
2023/04/18 01:17:34;;;;;;;14.63;11.47;;;;;;;;;;4999638;28;20257;-51
2023/04/18 01:20:04;;;;;;;12.47;10.70;;;;;;;;;;5000432;28;20684;-53
2023/04/18 01:22:31;;;;;;;13.73;12.33;;;;;;;;;;4994758;28;20316;-53
2023/04/18 01:24:59;;;;;;;13.07;10.87;;;;;;;;;;5000554;28;20246;-54
2023/04/18 01:27:27;;;;;;;12.00;9.37;;;;;;;;;;4999190;28;20989;-52
2023/04/18 01:29:53;;;;;;;14.60;11.63;;;;;;;;;;5004096;28;20329;-52
2023/04/18 01:32:20;;;;;;;12.87;11.40;;;;;;;;;;4995930;28;20233;-52
2023/04/18 01:34:47;;;;;;;12.87;11.50;;;;;;;;;;5005786;28;20253;-52
2023/04/18 01:37:13;;;;;;;10.97;9.80;;;;;;;;;;5004267;28;20233;-52
2023/04/18 01:39:40;;;;;;;13.47;10.90;;;;;;;;;;4997075;28;20234;-52
2023/04/18 01:42:08;;;;;;;14.17;10.37;;;;;;;;;;5001979;28;20335;-52
2023/04/18 01:44:34;;;;;;;13.93;11.47;;;;;;;;;;5006255;28;20233;-52
2023/04/18 01:47:01;;;;;;;12.37;10.40;;;;;;;;;;5022958;28;20233;-53
2023/04/18 01:49:28;;;;;;;13.70;11.13;;;;;;;;;;5018943;28;20675;-52
2023/04/18 01:51:54;;;;;;;16.23;11.37;;;;;;;;;;5016869;28;20241;-53
2023/04/18 01:54:21;;;;;;;11.77;10.53;;;;;;;;;;5015864;28;20260;-52
2023/04/18 01:56:47;;;;;;;11.80;10.20;;;;;;;;;;5008189;28;20324;-55
2023/04/18 01:59:15;;;;;;;12.90;11.23;;;;;;;;;;5004867;28;20311;-60
2023/04/18 02:01:42;;;;;;;13.00;10.63;;;;;;;;;;5000497;28;20241;-53
2023/04/18 02:04:09;;;;;;;14.37;11.40;;;;;;;;;;5004921;28;20233;-52
2023/04/18 02:06:35;;;;;;;13.00;9.87;;;;;;;;;;4999065;28;20962;-51
2023/04/18 02:09:02;;;;;;;16.47;11.57;;;;;;;;;;5000189;28;20657;-52
2023/04/18 02:11:29;;;;;;;13.13;11.37;;;;;;;;;;5002127;28;20229;-53
2023/04/18 02:13:58;;;;;;;12.43;9.90;;;;;;;;;;5003618;28;20237;-54
2023/04/18 02:16:26;;;;;;;12.80;10.23;;;;;;;;;;5003200;28;20278;-52
2023/04/18 02:18:52;;;;;;;12.77;10.63;;;;;;;;;;4992237;28;20309;-51
2023/04/18 02:21:20;;;;;;;14.40;12.23;;;;;;;;;;4999308;28;20232;-52
2023/04/18 02:23:47;;;;;;;14.03;10.27;;;;;;;;;;5004529;28;20260;-51
2023/04/18 02:26:13;;;;;;;13.73;11.17;;;;;;;;;;5001534;28;20462;-51
2023/04/18 02:28:40;;;;;;;14.50;11.40;;;;;;;;;;4999250;28;20229;-52
2023/04/18 02:31:13;;;;;;;13.13;11.07;;;;;;;;;;4999776;28;20232;-53
2023/04/18 02:33:41;;;;;;;13.90;11.30;;;;;;;;;;5000261;28;20793;-52
2023/04/18 02:36:07;;;;;;;15.20;11.67;;;;;;;;;;4997259;28;20844;-52
2023/04/18 02:38:34;;;;;;;13.10;11.17;;;;;;;;;;5000733;28;20688;-53
2023/04/18 02:41:00;;;;;;;15.87;13.10;;;;;;;;;;4996642;28;20230;-51
2023/04/18 02:43:27;;;;;;;12.97;11.00;;;;;;;;;;5005695;28;20647;-52
2023/04/18 02:45:53;;;;;;;15.53;12.27;;;;;;;;;;5002067;28;20260;-51
2023/04/18 02:48:20;;;;;;;12.33;10.67;;;;;;;;;;5003636;28;20230;-53
2023/04/18 02:50:48;;;;;;;12.00;10.67;;;;;;;;;;5000235;28;20612;-53
2023/04/18 02:53:15;;;;;;;12.33;10.50;;;;;;;;;;5001483;28;20336;-52
2023/04/18 02:55:42;;;;;;;13.90;11.47;;;;;;;;;;5004021;28;20233;-52
2023/04/18 02:58:09;;;;;;;11.50;10.40;;;;;;;;;;5005174;28;20327;-52
2023/04/18 03:00:36;;;;;;;10.80;9.70;;;;;;;;;;5001186;28;20242;-53
2023/04/18 03:03:02;;;;;;;12.73;11.07;;;;;;;;;;4999161;28;20304;-52
2023/04/18 03:05:29;;;;;;;14.47;11.47;;;;;;;;;;5001104;28;20299;-53
2023/04/18 03:07:57;;;;;;;14.97;11.27;;;;;;;;;;5003892;28;20240;-52
2023/04/18 03:10:24;;;;;;;12.93;11.63;;;;;;;;;;5003421;28;20233;-51
2023/04/18 03:12:51;;;;;;;13.80;11.37;;;;;;;;;;4999186;28;20313;-52
2023/04/18 03:15:17;;;;;;;13.90;11.67;;;;;;;;;;4997609;28;20703;-52
2023/04/18 03:17:44;;;;;;;15.13;12.67;;;;;;;;;;4998436;28;20241;-53
2023/04/18 03:20:11;;;;;;;12.70;10.60;;;;;;;;;;5002462;28;20260;-53
2023/04/18 03:22:38;;;;;;;15.03;11.27;;;;;;;;;;5000363;28;20234;-51
2023/04/18 03:25:07;;;;;;;12.27;9.93;;;;;;;;;;4999067;28;20359;-51
2023/04/18 03:27:34;;;;;;;11.20;10.00;;;;;;;;;;5002681;28;20316;-51
2023/04/18 03:30:01;;;;;;;13.63;9.83;;;;;;;;;;5003515;28;20236;-54
2023/04/18 03:32:28;;;;;;;10.13;9.13;;;;;;;;;;4999147;28;20246;-52
2023/04/18 03:34:54;;;;;;;12.33;10.20;;;;;;;;;;5002973;28;20859;-51
2023/04/18 03:37:21;;;;;;;12.63;9.73;;;;;;;;;;5002693;28;20376;-54
2023/04/18 03:39:48;;;;;;;14.73;10.80;;;;;;;;;;4999074;28;20225;-52
2023/04/18 03:42:16;;;;;;;11.80;9.80;;;;;;;;;;4997879;28;20255;-51
2023/04/18 03:44:42;;;;;;;13.27;9.80;;;;;;;;;;4998589;28;20605;-52
2023/04/18 03:47:09;;;;;;;13.47;10.93;;;;;;;;;;4998143;28;20306;-53
2023/04/18 03:49:36;;;;;;;11.90;9.97;;;;;;;;;;5004342;28;20388;-51
2023/04/18 03:52:03;;;;;;;12.63;10.10;;;;;;;;;;4999664;28;20584;-51
2023/04/18 03:54:29;;;;;;;13.90;9.40;;;;;;;;;;4996595;28;20236;-52
2023/04/18 03:56:58;;;;;;;14.63;11.67;;;;;;;;;;5001419;28;20230;-53
2023/04/18 03:59:26;;;;;;;13.93;11.83;;;;;;;;;;4998443;28;20336;-52
2023/04/18 04:01:52;;;;;;;12.37;10.03;;;;;;;;;;5000983;28;20317;-52
2023/04/18 04:04:19;;;;;;;13.60;11.27;;;;;;;;;;4998519;28;20237;-54
2023/04/18 04:06:46;;;;;;;13.60;10.83;;;;;;;;;;5003234;28;20237;-52
2023/04/18 04:09:12;;;;;;;12.73;11.40;;;;;;;;;;4997706;28;20236;-51
2023/04/18 04:11:39;;;;;;;12.60;11.37;;;;;;;;;;4997209;28;20250;-51
2023/04/18 04:14:06;;;;;;;12.53;10.63;;;;;;;;;;4996572;28;20238;-53
2023/04/18 04:16:34;;;;;;;18.80;13.87;;;;;;;;;;5000727;28;20298;-54
2023/04/18 04:19:00;;;;;;;13.00;11.27;;;;;;;;;;4994666;28;20233;-53
2023/04/18 04:21:29;;;;;;;16.83;10.53;;;;;;;;;;4996576;28;20832;-53
2023/04/18 04:23:56;;;;;;;11.80;9.67;;;;;;;;;;4992152;28;20242;-51
2023/04/18 04:26:22;;;;;;;12.93;11.33;;;;;;;;;;4999433;28;20229;-53
2023/04/18 04:28:50;;;;;;;12.17;10.57;;;;;;;;;;5002286;28;20264;-53
2023/04/18 04:31:17;;;;;;;12.80;11.37;;;;;;;;;;5011384;28;20253;-52
2023/04/18 04:33:45;;;;;;;17.63;13.47;;;;;;;;;;4999948;28;20824;-53
2023/04/18 04:36:13;;;;;;;12.90;11.20;;;;;;;;;;5020200;28;20229;-54
2023/04/18 04:38:40;;;;;;;15.93;13.20;;;;;;;;;;5023681;28;20809;-52
2023/04/18 04:41:08;;;;;;;13.77;11.27;;;;;;;;;;5006615;28;20366;-55
2023/04/18 04:43:34;;;;;;;12.43;11.13;;;;;;;;;;5002213;28;20271;-51
2023/04/18 04:46:02;;;;;;;12.13;10.87;;;;;;;;;;5003935;28;20259;-53
2023/04/18 04:48:29;;;;;;;15.00;12.77;;;;;;;;;;5006212;28;20256;-51
2023/04/18 04:50:57;;;;;;;14.83;11.73;;;;;;;;;;5007020;28;20233;-52
2023/04/18 04:53:25;;;;;;;14.07;11.60;;;;;;;;;;5001290;28;22099;-53
2023/04/18 04:55:51;;;;;;;18.03;14.30;;;;;;;;;;5002059;28;20229;-53
2023/04/18 04:58:18;;;;;;;13.23;11.93;;;;;;;;;;4994957;28;20241;-52
2023/04/18 05:00:45;;;;;;;12.70;10.83;;;;;;;;;;5005543;28;20260;-54
2023/04/18 05:03:11;;;;;;;15.27;11.87;;;;;;;;;;5005176;28;20667;-56
2023/04/18 05:05:38;;;;;;;13.43;11.40;;;;;;;;;;5001970;28;20256;-52
2023/04/18 05:08:06;;;;;;;13.63;11.13;;;;;;;;;;5005535;28;20229;-53
2023/04/18 05:10:35;;;;;;;12.67;11.10;;;;;;;;;;5005272;28;20723;-52
2023/04/18 05:13:02;;;;;;;13.37;11.17;;;;;;;;;;5003251;28;20245;-53
2023/04/18 05:15:29;;;;;;;18.23;12.53;;;;;;;;;;5001708;28;20314;-51
2023/04/18 05:17:55;;;;;;;14.57;11.87;;;;;;;;;;5000287;28;20233;-55
2023/04/18 05:20:22;;;;;;;12.47;11.17;;;;;;;;;;5002173;28;20792;-52
2023/04/18 05:22:48;;;;;;;14.00;10.73;;;;;;;;;;4997295;28;20237;-53
2023/04/18 05:25:16;;;;;;;13.47;11.20;;;;;;;;;;5005700;28;20716;-52
2023/04/18 05:27:43;;;;;;;12.43;11.07;;;;;;;;;;5002525;28;20236;-51
2023/04/18 05:30:10;;;;;;;13.13;11.30;;;;;;;;;;5004345;28;20336;-52
2023/04/18 05:32:37;;;;;;;13.93;11.47;;;;;;;;;;5000408;28;20232;-51
2023/04/18 05:35:04;;;;;;;13.27;11.13;;;;;;;;;;5002085;28;20241;-52
2023/04/18 05:37:31;;;;;;;12.27;10.93;;;;;;;;;;5004615;28;20225;-53
2023/04/18 05:39:58;;;;;;;14.27;11.53;;;;;;;;;;5004815;28;20236;-53
2023/04/18 05:42:26;;;;;;;15.80;11.83;;;;;;;;;;4999967;28;20240;-54
2023/04/18 05:44:52;;;;;;;14.43;10.57;;;;;;;;;;5004165;28;20233;-52
2023/04/18 05:47:19;;;;;;;16.27;11.07;;;;;;;;;;4997845;28;20230;-52
2023/04/18 05:49:45;;;;;;;15.77;11.80;;;;;;;;;;5002676;28;20651;-53
2023/04/18 05:52:12;;;;;;;15.33;12.47;;;;;;;;;;5000868;28;20797;-53
2023/04/18 05:54:38;;;;;;;13.80;10.37;;;;;;;;;;4994668;28;20325;-52
2023/04/18 05:57:05;;;;;;;13.87;11.93;;;;;;;;;;4999868;28;20245;-52
2023/04/18 05:59:33;;;;;;;14.43;12.00;;;;;;;;;;4998183;28;20570;-52
2023/04/18 06:02:00;;;;;;;18.07;12.37;;;;;;;;;;5004481;28;20670;-53
2023/04/18 06:04:26;;;;;;;17.50;12.20;;;;;;;;;;5002007;28;20242;-51
2023/04/18 06:06:53;;;;;;;11.67;10.47;;;;;;;;;;4999526;28;20241;-52
2023/04/18 06:09:20;;;;;;;12.20;10.97;;;;;;;;;;5002357;28;20233;-51
2023/04/18 06:11:46;;;;;;;14.80;11.70;;;;;;;;;;5004925;28;20879;-52
2023/04/18 06:14:13;;;;;;;13.87;11.97;;;;;;;;;;4998632;28;20422;-52
2023/04/18 06:16:41;;;;;;;16.87;11.10;;;;;;;;;;5003029;28;20237;-52
2023/04/18 06:19:08;;;;;;;13.20;11.80;;;;;;;;;;4997031;28;20231;-52
2023/04/18 06:21:35;;;;;;;14.17;10.40;;;;;;;;;;4998303;28;20233;-53
2023/04/18 06:24:01;;;;;;;15.57;11.50;;;;;;;;;;5003912;28;20747;-52
2023/04/18 06:26:29;;;;;;;12.53;11.03;;;;;;;;;;4999386;28;20245;-54
2023/04/18 06:28:55;;;;;;;11.60;10.33;;;;;;;;;;4999611;28;20233;-53
2023/04/18 06:31:22;;;;;;;13.00;11.60;;;;;;;;;;5000951;28;20237;-52
2023/04/18 06:33:50;;;;;;;12.77;10.27;;;;;;;;;;5000907;28;20236;-54
2023/04/18 06:36:17;;;;;;;11.90;10.70;;;;;;;;;;5002518;28;20245;-53
2023/04/18 06:38:43;;;;;;;12.23;11.13;;;;;;;;;;4993898;28;20666;-53
2023/04/18 06:41:10;;;;;;;13.00;10.43;;;;;;;;;;4995762;28;20231;-53
2023/04/18 06:43:37;;;;;;;11.53;10.33;;;;;;;;;;5006639;28;20637;-53
2023/04/18 06:46:04;;;;;;;11.60;10.03;;;;;;;;;;5006410;28;20229;-53
2023/04/18 06:48:31;;;;;;;16.43;9.87;;;;;;;;;;5008000;28;20236;-53
2023/04/18 06:50:59;;;;;;;13.70;10.37;;;;;;;;;;5008460;28;20252;-52
2023/04/18 06:53:25;;;;;;;10.97;9.73;;;;;;;;;;5003802;28;20252;-54
2023/04/18 06:55:52;;;;;;;12.07;10.83;;;;;;;;;;4997397;28;20261;-52
2023/04/18 06:58:19;;;;;;;13.97;10.97;;;;;;;;;;4982239;28;20233;-52
2023/04/18 07:00:47;;;;;;;12.80;10.83;;;;;;;;;;5002001;28;20271;-52
2023/04/18 07:03:14;;;;;;;14.20;9.87;;;;;;;;;;5002493;28;20328;-52
2023/04/18 07:05:41;;;;;;;10.77;9.67;;;;;;;;;;4996380;28;20283;-52
2023/04/18 07:08:09;;;;;;;11.20;9.07;;;;;;;;;;4997887;28;20229;-52
2023/04/18 07:10:35;;;;;;;14.43;10.00;;;;;;;;;;5001745;28;20241;-53
2023/04/18 07:13:02;;;;;;;10.60;9.50;;;;;;;;;;5003069;28;20723;-52
2023/04/18 07:15:29;;;;;;;12.43;10.40;;;;;;;;;;5002907;28;20241;-53
2023/04/18 07:17:55;;;;;;;10.53;8.97;;;;;;;;;;5002540;28;20767;-53
2023/04/18 07:20:22;;;;;;;13.97;8.93;;;;;;;;;;4993106;28;20230;-52
2023/04/18 07:22:48;;;;;;;11.10;10.00;;;;;;;;;;4990241;28;20237;-51
2023/04/18 07:25:16;;;;;;;10.60;9.50;;;;;;;;;;5003071;28;20296;-54
2023/04/18 07:27:43;;;;;;;10.87;8.60;;;;;;;;;;4994806;28;20229;-52
2023/04/18 07:30:10;;;;;;;12.30;9.70;;;;;;;;;;5000771;28;20240;-52
2023/04/18 07:32:36;;;;;;;10.80;8.43;;;;;;;;;;4999146;28;20240;-51
2023/04/18 07:35:04;;;;;;;9.67;8.70;;;;;;;;;;5003266;28;20328;-52
2023/04/18 07:37:30;;;;;;;14.03;10.10;;;;;;;;;;4998438;28;20360;-53
2023/04/18 07:39:57;;;;;;;14.17;10.70;;;;;;;;;;4999359;28;20324;-53
2023/04/18 07:42:25;;;;;;;11.43;9.80;;;;;;;;;;4998250;28;20862;-54
2023/04/18 07:44:56;;;;;;;16.13;10.87;;;;;;;;;;4997043;28;20318;-53
2023/04/18 07:47:23;;;;;;;12.27;10.10;;;;;;;;;;4991856;28;20798;-52
2023/04/18 07:49:49;;;;;;;13.57;9.87;;;;;;;;;;4996624;28;20233;-54
2023/04/18 07:52:16;;;;;;;10.80;9.70;;;;;;;;;;4989681;28;20258;-51
2023/04/18 07:54:42;;;;;;;13.40;10.33;;;;;;;;;;4996135;28;20309;-53
2023/04/18 07:57:09;;;;;;;12.90;10.23;;;;;;;;;;4997611;28;20311;-53
2023/04/18 07:59:37;;;;;;;12.13;9.60;;;;;;;;;;5004785;28;20240;-54
2023/04/18 08:02:04;;;;;;;10.00;8.97;;;;;;;;;;5000629;28;20240;-53
2023/04/18 08:04:31;;;;;;;12.83;10.07;;;;;;;;;;5001455;28;20260;-53
2023/04/18 08:06:57;;;;;;;9.07;8.17;;;;;;;;;;4990894;28;20272;-54
2023/04/18 08:09:24;;;;;;;10.73;8.63;;;;;;;;;;4999164;28;20229;-52
2023/04/18 08:11:51;;;;;;;11.40;10.20;;;;;;;;;;4990897;28;20257;-52
2023/04/18 08:14:17;;;;;;;10.43;9.33;;;;;;;;;;4995665;28;20225;-52
2023/04/18 08:16:45;;;;;;;12.47;10.27;;;;;;;;;;4999180;28;20229;-51
2023/04/18 08:19:12;;;;;;;11.80;10.60;;;;;;;;;;4998147;28;20269;-52
2023/04/18 08:21:39;;;;;;;12.00;10.33;;;;;;;;;;5003321;28;20288;-54
2023/04/18 08:24:05;;;;;;;9.23;8.33;;;;;;;;;;5005956;28;20248;-52
2023/04/18 08:26:32;;;;;;;10.70;9.60;;;;;;;;;;5006267;28;20241;-52
2023/04/18 08:28:59;;;;;;;11.33;8.97;;;;;;;;;;5006782;28;20233;-52
2023/04/18 08:31:26;;;;;;;11.80;10.27;;;;;;;;;;5006734;28;20256;-53
2023/04/18 08:33:54;;;;;;;10.60;9.50;;;;;;;;;;5007082;28;20324;-52
2023/04/18 08:36:21;;;;;;;10.03;9.03;;;;;;;;;;5002830;28;20224;-52
2023/04/18 08:38:48;;;;;;;11.90;9.63;;;;;;;;;;5002263;28;20299;-54
2023/04/18 08:41:15;;;;;;;9.97;8.97;;;;;;;;;;4999028;28;20549;-52
2023/04/18 08:43:42;;;;;;;10.03;9.03;;;;;;;;;;5006514;28;20240;-51
2023/04/18 08:46:08;;;;;;;14.00;10.83;;;;;;;;;;5000135;28;20256;-52
2023/04/18 08:48:35;;;;;;;15.17;10.47;;;;;;;;;;4996635;28;20228;-51
2023/04/18 08:51:03;;;;;;;11.00;8.67;;;;;;;;;;4992876;28;20229;-53
2023/04/18 08:53:31;;;;;;;12.40;10.33;;;;;;;;;;4996499;28;20225;-54
2023/04/18 08:55:59;;;;;;;10.33;9.23;;;;;;;;;;5000157;28;20724;-53
2023/04/18 08:58:26;;;;;;;13.23;10.27;;;;;;;;;;5010313;28;20230;-53
2023/04/18 09:00:52;;;;;;;9.20;7.77;;;;;;;;;;5009492;28;20304;-52
2023/04/18 09:03:36;;;;;;;10.03;9.00;;;;;;;;;;5008547;28;20701;-53
2023/04/18 09:06:12;;;;;;;10.00;8.40;;;;;;;;;;5004238;28;20268;-53
2023/04/18 09:08:40;;;;;;;10.87;8.50;;;;;;;;;;5004009;28;20252;-54
2023/04/18 09:11:27;;;;;;;12.70;10.00;;;;;;;;;;5005007;28;20612;-53
2023/04/18 09:13:55;;;;;;;10.07;9.03;;;;;;;;;;5004169;28;20291;-53
2023/04/18 09:16:21;;;;;;;8.67;7.77;;;;;;;;;;4999349;28;20225;-55
2023/04/18 09:19:06;;;;;;;10.57;9.37;;;;;;;;;;5000912;28;20272;-53
2023/04/18 09:21:35;;;;;;;12.27;10.73;;;;;;;;;;5002940;28;20233;-53
2023/04/18 09:24:07;;;;;;;11.10;9.97;;;;;;;;;;5004964;28;20236;-53
2023/04/18 09:26:35;;;;;;;11.93;8.70;;;;;;;;;;5006702;28;20320;-53
2023/04/18 09:29:02;;;;;;;11.37;9.33;;;;;;;;;;5002976;28;20229;-54
2023/04/18 09:31:29;;;;;;;10.67;9.13;;;;;;;;;;5003896;28;20237;-52
2023/04/18 09:33:55;;;;;;;10.60;9.20;;;;;;;;;;4998909;28;20241;-53
2023/04/18 09:36:22;;;;;;;10.83;9.73;;;;;;;;;;5001618;28;20237;-52
2023/04/18 09:38:51;;;;;;;14.93;10.97;;;;;;;;;;5001264;28;20229;-53
2023/04/18 09:41:18;;;;;;;8.80;7.90;;;;;;;;;;5001340;28;20230;-52
2023/04/18 09:43:44;;;;;;;11.07;9.60;;;;;;;;;;5006342;28;20237;-53
2023/04/18 09:46:11;;;;;;;15.35;8.48;;;;;;;;;;4995927;28;20229;-52
2023/04/18 09:48:38;;;;;;;11.30;9.27;;;;;;;;;;4997256;28;20268;-52
2023/04/18 09:51:05;;;;;;;10.57;8.73;;;;;;;;;;5001961;28;20241;-54
2023/04/18 09:53:32;;;;;;;9.50;8.40;;;;;;;;;;5002271;28;20720;-53
2023/04/18 09:56:01;;;;;;;11.82;9.73;;;;;;;;;;5004487;28;20241;-53
2023/04/18 09:58:28;;;;;;;9.73;8.75;;;;;;;;;;5005044;28;20312;-56
2023/04/18 10:00:56;;;;;;;10.20;8.88;;;;;;;;;;5002553;28;20265;-55
2023/04/18 10:03:26;;;;;;;10.95;8.68;;;;;;;;;;5006172;28;20256;-53
2023/04/18 10:05:53;;;;;;;10.73;9.65;;;;;;;;;;5000170;28;20229;-52
2023/04/18 10:08:19;;;;;;;9.27;8.27;;;;;;;;;;5002797;28;20254;-53
2023/04/18 10:10:46;;;;;;;11.10;9.88;;;;;;;;;;5001389;28;20229;-52
2023/04/18 10:13:14;;;;;;;12.32;9.07;;;;;;;;;;4993724;28;20296;-53
2023/04/18 10:15:40;;;;;;;10.45;9.38;;;;;;;;;;5006623;28;20228;-55
2023/04/18 10:18:09;;;;;;;10.73;9.05;;;;;;;;;;5011655;28;20305;-52
2023/04/18 10:20:35;;;;;;;10.18;9.05;;;;;;;;;;5007522;28;20336;-53
2023/04/18 10:23:28;;;;;;;11.52;8.70;;;;;;;;;;5003956;28;20237;-51
2023/04/18 10:25:54;;;;;;;11.43;9.75;;;;;;;;;;5007628;28;20294;-54
2023/04/18 10:28:23;;;;;;;11.90;9.48;;;;;;;;;;5007777;28;20241;-53
2023/04/18 10:30:53;;;;;;;11.75;9.70;;;;;;;;;;5006308;28;20850;-53
2023/04/18 10:33:21;;;;;;;11.63;9.38;;;;;;;;;;5006774;28;20751;-52
2023/04/18 10:35:56;;;;;;;14.20;10.30;;;;;;;;;;4996730;28;20232;-52
2023/04/18 10:38:22;;;;;;;10.32;9.23;;;;;;;;;;5000159;28;20237;-52
2023/04/18 10:40:49;;;;;;;11.52;7.63;;;;;;;;;;4997850;28;20348;-53
2023/04/18 10:43:15;;;;;;;10.30;8.07;;;;;;;;;;5006049;28;20229;-53
2023/04/18 10:45:43;;;;;;;10.88;8.40;;;;;;;;;;5001970;28;20235;-57
2023/04/18 10:48:23;;;;;;;10.27;9.30;;;;;;;;;;5002190;28;20245;-53
2023/04/18 10:51:08;;;;;;;10.50;8.65;;;;;;;;;;5009016;28;20232;-53
2023/04/18 10:53:35;;;;;;;10.23;7.60;;;;;;;;;;5003279;28;20229;-52
2023/04/18 10:56:02;;;;;;;12.82;8.63;;;;;;;;;;5007763;28;20738;-54
2023/04/18 10:58:29;;;;;;;11.60;9.55;;;;;;;;;;4992117;28;20328;-54
2023/04/18 11:00:57;;;;;;;9.85;8.80;;;;;;;;;;4998514;28;20236;-56
2023/04/18 11:03:30;;;;;;;10.50;9.00;;;;;;;;;;5012312;28;20649;-58
2023/04/18 11:06:01;;;;;;;9.55;8.15;;;;;;;;;;5004908;28;20430;-56
2023/04/18 11:08:27;;;;;;;9.52;8.15;;;;;;;;;;5010626;28;20253;-54
2023/04/18 11:10:56;;;;;;;9.15;8.25;;;;;;;;;;5003601;28;20238;-53
2023/04/18 11:13:23;;;;;;;8.90;8.10;;;;;;;;;;5006502;28;20303;-52
2023/04/18 11:15:49;;;;;;;10.15;7.45;;;;;;;;;;5003940;28;20229;-52
2023/04/18 11:18:17;;;;;;;8.88;8.02;;;;;;;;;;5004915;28;21447;-59
2023/04/18 11:20:46;;;;;;;9.07;8.18;;;;;;;;;;5012068;28;20697;-52
2023/04/18 11:23:16;;;;;;;9.43;8.30;;;;;;;;;;5000743;28;20312;-53
2023/04/18 11:25:44;;;;;;;8.82;7.82;;;;;;;;;;5002101;28;20233;-54
2023/04/18 11:28:12;;;;;;;9.52;8.57;;;;;;;;;;5004483;28;20256;-52
2023/04/18 11:30:39;;;;;;;10.20;7.80;;;;;;;;;;5001184;28;20316;-53
2023/04/18 11:33:07;;;;;;;13.25;8.00;;;;;;;;;;5000962;28;20308;-53
2023/04/18 11:35:37;;;;;;;9.65;7.45;;;;;;;;;;5002829;28;20606;-52
2023/04/18 11:38:05;;;;;;;9.35;8.18;;;;;;;;;;4999976;28;20324;-52
2023/04/18 11:40:31;;;;;;;10.25;8.27;;;;;;;;;;5002651;28;20317;-52
2023/04/18 11:43:00;;;;;;;10.82;7.93;;;;;;;;;;5003403;28;20237;-54
2023/04/18 11:45:27;;;;;;;8.50;7.70;;;;;;;;;;4996709;28;20233;-53
2023/04/18 11:47:55;;;;;;;9.07;8.20;;;;;;;;;;5002952;28;20256;-53
2023/04/18 11:50:21;;;;;;;10.20;7.97;;;;;;;;;;5000263;28;20233;-53
2023/04/18 11:52:53;;;;;;;8.70;7.78;;;;;;;;;;4996962;28;20253;-53
2023/04/18 11:55:21;;;;;;;9.43;7.88;;;;;;;;;;4997132;28;20233;-53
2023/04/18 11:57:51;;;;;;;7.97;7.00;;;;;;;;;;4997175;28;20237;-52
2023/04/18 12:00:19;;;;;;;9.57;7.72;;;;;;;;;;4990935;28;20248;-52
2023/04/18 12:02:46;;;;;;;9.52;7.72;;;;;;;;;;5001190;28;20225;-53
2023/04/18 12:05:13;;;;;;;9.10;8.18;;;;;;;;;;4995411;28;20241;-52
2023/04/18 12:07:40;;;;;;;8.65;7.65;;;;;;;;;;5002294;28;20601;-53
2023/04/18 12:10:09;;;;;;;8.40;7.28;;;;;;;;;;5001872;28;20256;-54
2023/04/18 12:12:36;;;;;;;10.00;9.02;;;;;;;;;;4997553;28;20316;-52
2023/04/18 12:15:03;;;;;;;9.35;8.35;;;;;;;;;;5000278;28;20268;-54
2023/04/18 12:17:30;;;;;;;10.15;9.15;;;;;;;;;;4994554;28;20245;-55
2023/04/18 12:20:00;;;;;;;10.15;9.15;;;;;;;;;;5003589;28;20295;-53
2023/04/18 12:22:43;;;;;;;9.95;8.90;;;;;;;;;;4998070;28;20304;-52
2023/04/18 12:25:18;;;;;;;9.63;8.65;;;;;;;;;;5001713;28;20312;-52
2023/04/18 12:27:52;;;;;;;9.68;8.80;;;;;;;;;;4991623;28;20248;-52
2023/04/18 12:30:20;;;;;;;13.77;10.60;;;;;;;;;;5001801;28;20314;-53
2023/04/18 12:32:47;;;;;;;9.98;8.98;;;;;;;;;;5000144;28;20312;-52
2023/04/18 12:35:14;;;;;;;10.73;9.32;;;;;;;;;;5004258;28;20237;-52
2023/04/18 12:37:40;;;;;;;13.00;9.23;;;;;;;;;;4999658;28;20621;-53
2023/04/18 12:40:07;;;;;;;11.90;9.93;;;;;;;;;;5000270;28;20315;-53
2023/04/18 12:42:35;;;;;;;15.98;9.52;;;;;;;;;;5003896;28;20756;-53
2023/04/18 12:45:02;;;;;;;12.27;9.65;;;;;;;;;;4996736;28;20241;-52
2023/04/18 12:47:28;;;;;;;10.13;9.13;;;;;;;;;;4996606;28;20324;-53
2023/04/18 12:49:55;;;;;;;10.07;9.07;;;;;;;;;;4999967;28;20261;-51
2023/04/18 12:52:21;;;;;;;10.82;9.73;;;;;;;;;;4999853;28;20233;-52
2023/04/18 12:54:47;;;;;;;11.40;10.18;;;;;;;;;;4998691;28;20312;-54
2023/04/18 12:57:14;;;;;;;9.75;8.75;;;;;;;;;;5001080;28;20230;-53
2023/04/18 12:59:42;;;;;;;9.77;8.98;;;;;;;;;;5001672;28;20267;-51
2023/04/18 13:02:08;;;;;;;11.55;10.18;;;;;;;;;;4997854;28;20229;-52
2023/04/18 13:04:35;;;;;;;12.15;10.05;;;;;;;;;;5002746;28;20325;-53
2023/04/18 13:07:01;;;;;;;11.18;9.88;;;;;;;;;;5003360;28;20241;-53
2023/04/18 13:09:27;;;;;;;12.50;10.10;;;;;;;;;;5001313;28;20674;-54
2023/04/18 13:11:54;;;;;;;11.02;9.93;;;;;;;;;;5007010;28;20320;-53
2023/04/18 13:14:20;;;;;;;12.00;9.90;;;;;;;;;;5000330;28;21281;-53
2023/04/18 13:16:48;;;;;;;11.43;9.73;;;;;;;;;;5002276;28;20233;-53
2023/04/18 13:19:15;;;;;;;11.73;9.68;;;;;;;;;;5000116;28;20316;-52
2023/04/18 13:21:41;;;;;;;9.40;8.50;;;;;;;;;;5002299;28;20237;-53
2023/04/18 13:24:07;;;;;;;10.98;9.88;;;;;;;;;;5003361;28;20237;-53
2023/04/18 13:26:34;;;;;;;12.07;10.43;;;;;;;;;;5006469;28;20673;-53
2023/04/18 13:29:01;;;;;;;11.48;10.27;;;;;;;;;;4999205;28;20248;-53
2023/04/18 13:31:28;;;;;;;11.95;10.73;;;;;;;;;;4998239;28;20237;-53
2023/04/18 13:33:56;;;;;;;12.18;10.90;;;;;;;;;;4997113;28;20233;-52
2023/04/18 13:36:23;;;;;;;12.43;10.95;;;;;;;;;;4999700;28;20233;-53
2023/04/18 13:38:49;;;;;;;13.10;10.65;;;;;;;;;;4996721;28;20324;-52
2023/04/18 13:41:15;;;;;;;12.10;10.80;;;;;;;;;;5005769;28;20237;-52
2023/04/18 13:43:42;;;;;;;11.73;10.63;;;;;;;;;;5002482;28;20637;-53
2023/04/18 13:46:08;;;;;;;13.63;11.35;;;;;;;;;;4999652;28;20621;-52
2023/04/18 13:48:35;;;;;;;13.23;10.95;;;;;;;;;;4995383;28;20260;-53
2023/04/18 13:51:03;;;;;;;11.57;10.27;;;;;;;;;;5005465;28;20324;-53
2023/04/18 13:53:29;;;;;;;10.02;9.10;;;;;;;;;;5000690;28;20225;-54
2023/04/18 13:55:55;;;;;;;11.63;10.38;;;;;;;;;;5004471;28;20238;-52
2023/04/18 13:58:22;;;;;;;11.30;10.10;;;;;;;;;;5004794;28;20243;-52
2023/04/18 14:00:48;;;;;;;11.85;8.88;;;;;;;;;;5005765;28;20345;-53
2023/04/18 14:03:15;;;;;;;9.32;8.32;;;;;;;;;;5001504;28;20253;-52
2023/04/18 14:05:41;;;;;;;10.40;8.80;;;;;;;;;;4999595;28;20241;-53
2023/04/18 14:08:09;;;;;;;10.25;9.02;;;;;;;;;;4996907;28;20247;-53
2023/04/18 14:10:35;;;;;;;10.60;9.57;;;;;;;;;;5004642;28;20328;-53
2023/04/18 14:13:02;;;;;;;12.02;9.63;;;;;;;;;;5001455;28;20241;-52
2023/04/18 14:15:29;;;;;;;10.00;9.07;;;;;;;;;;5003197;28;20797;-53
2023/04/18 14:17:55;;;;;;;10.60;9.60;;;;;;;;;;5003338;28;20231;-53
2023/04/18 14:20:22;;;;;;;10.95;9.27;;;;;;;;;;5001142;28;20773;-55
2023/04/18 14:22:49;;;;;;;14.10;10.68;;;;;;;;;;4996185;28;20233;-53
2023/04/18 14:25:17;;;;;;;10.38;9.07;;;;;;;;;;5002362;28;20332;-53